createdAt,value
2019-05-06T00:01:53.921Z,15.80
2019-05-06T00:04:24.847Z,20.17
2019-05-06T00:06:54.798Z,14.87
2019-05-06T00:09:24.352Z,15.90
2019-05-06T00:11:54.892Z,18.57
2019-05-06T00:14:23.930Z,18.47
2019-05-06T00:16:55.136Z,15.13
2019-05-06T00:19:24.720Z,20.93
2019-05-06T00:21:54.208Z,23.60
2019-05-06T00:24:24.946Z,19.10
2019-05-06T00:27:01.135Z,15.97
2019-05-06T00:29:31.912Z,17.43
2019-05-06T00:32:00.877Z,28.07
2019-05-06T00:34:29.865Z,22.90
2019-05-06T00:36:58.829Z,26.07
2019-05-06T00:39:45.334Z,20.23
2019-05-06T00:42:34.644Z,28.43
2019-05-06T00:45:05.934Z,38.40
2019-05-06T00:47:34.911Z,39.43
2019-05-06T00:50:04.483Z,90.53
2019-05-06T00:52:33.969Z,47.73
2019-05-06T00:55:05.392Z,28.73
2019-05-06T00:57:46.587Z,18.53
2019-05-06T01:00:17.421Z,17.97
2019-05-06T01:02:46.569Z,16.10
2019-05-06T01:05:17.250Z,18.00
2019-05-06T01:07:46.140Z,22.40
2019-05-06T01:10:23.843Z,22.67
2019-05-06T01:13:04.834Z,31.43
2019-05-06T01:15:34.383Z,28.47
2019-05-06T01:18:05.374Z,24.73
2019-05-06T01:20:40.777Z,38.57
2019-05-06T01:23:09.724Z,28.83
2019-05-06T01:25:38.620Z,17.43
2019-05-06T01:28:07.652Z,14.23
2019-05-06T01:30:39.970Z,24.70
2019-05-06T01:33:12.158Z,25.37
2019-05-06T01:35:41.153Z,27.80
2019-05-06T01:38:30.088Z,21.57
2019-05-06T01:41:20.538Z,19.97
2019-05-06T01:43:49.415Z,17.83
2019-05-06T01:46:18.368Z,17.67
2019-05-06T01:48:47.631Z,15.37
2019-05-06T01:51:20.113Z,20.80
2019-05-06T01:53:49.700Z,15.93
2019-05-06T01:56:18.752Z,18.33
2019-05-06T01:58:47.795Z,21.43
2019-05-06T02:01:17.818Z,29.57
2019-05-06T02:03:46.836Z,28.10
2019-05-06T02:06:15.707Z,28.67
2019-05-06T02:08:44.989Z,34.80
2019-05-06T02:11:18.397Z,35.10
2019-05-06T02:13:47.316Z,38.23
2019-05-06T02:16:18.356Z,31.67
2019-05-06T02:18:47.506Z,72.60
2019-05-06T02:21:26.448Z,68.23
2019-05-06T02:24:01.295Z,41.57
2019-05-06T02:26:30.287Z,26.23
2019-05-06T02:29:00.911Z,18.87
2019-05-06T02:31:48.865Z,30.00
2019-05-06T02:34:45.803Z,38.27
2019-05-06T02:37:18.090Z,63.17
2019-05-06T02:39:47.415Z,103.43
2019-05-06T02:42:16.453Z,94.53
2019-05-06T02:44:48.867Z,50.73
2019-05-06T02:47:55.006Z,41.73
2019-05-06T02:50:25.304Z,26.90
2019-05-06T02:52:54.512Z,23.90
2019-05-06T02:55:24.061Z,21.40
2019-05-06T02:57:53.855Z,42.17
2019-05-06T03:00:23.965Z,58.57
2019-05-06T03:02:54.162Z,34.40
2019-05-06T03:05:25.489Z,28.07
2019-05-06T03:07:57.591Z,19.67
2019-05-06T03:10:26.829Z,20.40
2019-05-06T03:12:58.088Z,22.90
2019-05-06T03:15:28.372Z,17.97
2019-05-06T03:17:57.301Z,25.50
2019-05-06T03:20:32.426Z,30.60
2019-05-06T03:23:05.833Z,25.53
2019-05-06T03:25:37.119Z,19.30
2019-05-06T03:28:08.931Z,13.77
2019-05-06T03:30:37.861Z,13.93
2019-05-06T03:35:55.961Z,15.33
2019-05-06T03:38:13.831Z,16.13
2019-05-06T03:40:45.715Z,15.50
2019-05-06T03:43:15.938Z,15.10
2019-05-06T03:46:14.672Z,15.37
2019-05-06T03:48:45.555Z,22.60
2019-05-06T03:51:14.546Z,22.50
2019-05-06T03:53:44.629Z,23.73
2019-05-06T03:56:19.266Z,23.53
2019-05-06T03:58:45.331Z,24.37
2019-05-06T04:01:15.575Z,17.73
2019-05-06T04:03:51.376Z,18.13
2019-05-06T04:06:16.444Z,16.07
2019-05-06T04:08:45.521Z,16.63
2019-05-06T04:11:16.386Z,17.67
2019-05-06T04:13:49.782Z,16.67
2019-05-06T04:16:25.592Z,15.30
2019-05-06T04:19:04.122Z,17.30
2019-05-06T04:21:43.445Z,17.27
2019-05-06T04:24:18.295Z,19.70
2019-05-06T04:27:03.043Z,17.30
2019-05-06T04:29:33.068Z,21.53
2019-05-06T04:32:03.567Z,16.70
2019-05-06T04:34:33.455Z,13.63
2019-05-06T04:37:03.586Z,17.67
2019-05-06T04:39:37.258Z,13.13
2019-05-06T04:42:09.733Z,14.70
2019-05-06T04:44:38.212Z,13.80
2019-05-06T04:47:07.400Z,15.77
2019-05-06T04:49:40.017Z,14.63
2019-05-06T04:52:15.567Z,13.27
2019-05-06T04:54:44.500Z,15.13
2019-05-06T04:57:13.407Z,17.10
2019-05-06T04:59:43.242Z,13.90
2019-05-06T05:02:13.304Z,15.27
2019-05-06T05:04:43.298Z,14.70
2019-05-06T05:07:12.886Z,13.57
2019-05-06T05:09:42.964Z,16.80
2019-05-06T05:12:22.735Z,12.03
2019-05-06T05:15:03.282Z,12.63
2019-05-06T05:17:37.229Z,15.07
2019-05-06T05:20:09.058Z,12.47
2019-05-06T05:22:38.582Z,12.20
2019-05-06T05:25:07.560Z,15.90
2019-05-06T05:27:36.632Z,14.73
2019-05-06T05:30:12.489Z,15.60
2019-05-06T05:32:42.808Z,13.63
2019-05-06T05:35:12.759Z,14.77
2019-05-06T05:37:42.873Z,20.80
2019-05-06T05:40:12.980Z,15.67
2019-05-06T05:43:03.141Z,14.63
2019-05-06T05:45:32.763Z,15.67
2019-05-06T05:48:05.182Z,13.30
2019-05-06T05:50:37.653Z,15.67
2019-05-06T05:53:07.069Z,13.97
2019-05-06T05:55:57.432Z,14.30
2019-05-06T05:58:26.410Z,14.60
2019-05-06T06:00:57.820Z,12.17
2019-05-06T06:03:26.880Z,13.40
2019-05-06T06:05:55.897Z,13.73
2019-05-06T06:08:24.906Z,17.00
2019-05-06T06:11:01.394Z,15.07
2019-05-06T06:13:32.042Z,14.70
2019-05-06T06:16:19.783Z,13.97
2019-05-06T06:19:03.209Z,16.00
2019-05-06T06:21:37.284Z,14.57
2019-05-06T06:24:14.545Z,13.50
2019-05-06T06:26:43.530Z,11.77
2019-05-06T06:29:12.663Z,17.17
2019-05-06T06:32:03.154Z,11.50
2019-05-06T06:34:37.299Z,10.93
2019-05-06T06:37:29.605Z,14.17
2019-05-06T06:39:59.453Z,15.03
2019-05-06T06:42:28.458Z,18.07
2019-05-06T06:45:03.264Z,29.90
2019-05-06T06:47:32.047Z,19.07
2019-05-06T06:50:02.789Z,12.53
2019-05-06T06:52:32.664Z,16.00
2019-05-06T06:55:03.636Z,17.73
2019-05-06T06:57:43.897Z,12.90
2019-05-06T07:00:33.140Z,12.83
2019-05-06T07:03:08.664Z,77.23
2019-05-06T07:05:49.563Z,18.80
2019-05-06T07:08:32.088Z,11.33
2019-05-06T07:10:52.393Z,12.77
2019-05-06T07:13:23.046Z,10.90
2019-05-06T07:15:52.136Z,10.03
2019-05-06T07:18:22.644Z,28.50
2019-05-06T07:21:05.273Z,12.03
2019-05-06T07:23:37.571Z,11.93
2019-05-06T07:26:06.654Z,9.43
2019-05-06T07:28:35.577Z,28.63
2019-05-06T07:31:17.423Z,9.63
2019-05-06T07:33:35.684Z,16.43
2019-05-06T07:36:05.651Z,8.33
2019-05-06T07:38:34.781Z,10.73
2019-05-06T07:41:15.127Z,9.93
2019-05-06T07:44:02.176Z,9.37
2019-05-06T07:46:46.932Z,11.27
2019-05-06T07:49:17.320Z,10.23
2019-05-06T07:51:46.398Z,8.93
2019-05-06T07:54:15.641Z,6.23
2019-05-06T07:56:44.537Z,11.20
2019-05-06T07:59:13.447Z,7.57
2019-05-06T08:01:43.965Z,7.27
2019-05-06T08:04:14.542Z,7.13
2019-05-06T08:06:43.865Z,6.70
2019-05-06T08:09:14.130Z,6.93
2019-05-06T08:11:43.032Z,9.17
2019-05-06T08:14:12.997Z,4.30
2019-05-06T08:16:53.178Z,4.33
2019-05-06T08:19:23.082Z,5.37
2019-05-06T08:21:53.589Z,9.70
2019-05-06T08:24:22.816Z,16.20
2019-05-06T08:26:52.199Z,3.93
2019-05-06T08:29:24.174Z,9.87
2019-05-06T08:31:53.178Z,7.27
2019-05-06T08:34:22.625Z,4.53
2019-05-06T08:37:17.301Z,5.67
2019-05-06T08:39:48.644Z,26.70
2019-05-06T08:42:17.555Z,17.90
2019-05-06T08:44:46.616Z,6.67
2019-05-06T08:47:18.332Z,4.23
2019-05-06T08:50:15.660Z,23.73
2019-05-06T08:53:05.009Z,20.33
2019-05-06T08:55:35.225Z,10.53
2019-05-06T08:58:04.322Z,5.80
2019-05-06T09:00:34.971Z,4.37
2019-05-06T09:03:04.568Z,4.13
2019-05-06T09:05:33.648Z,7.13
2019-05-06T09:08:03.692Z,3.80
2019-05-06T09:10:33.070Z,5.27
2019-05-06T09:13:02.169Z,7.43
2019-05-06T09:15:32.687Z,5.53
2019-05-06T09:18:03.000Z,7.83
2019-05-06T09:20:33.069Z,8.53
2019-05-06T09:23:04.884Z,7.17
2019-05-06T09:25:33.710Z,3.97
2019-05-06T09:28:23.394Z,5.30
2019-05-06T09:30:57.577Z,5.60
2019-05-06T09:33:33.138Z,12.07
2019-05-06T09:36:03.370Z,14.27
2019-05-06T09:38:34.884Z,3.77
2019-05-06T09:41:04.998Z,13.67
2019-05-06T09:43:34.173Z,4.93
2019-05-06T09:46:03.171Z,6.13
2019-05-06T09:48:56.989Z,8.00
2019-05-06T09:51:26.017Z,4.63
2019-05-06T09:54:05.384Z,4.03
2019-05-06T09:56:38.338Z,4.80
2019-05-06T09:59:07.288Z,5.83
2019-05-06T10:01:36.230Z,4.70
2019-05-06T10:04:08.150Z,6.90
2019-05-06T10:06:37.352Z,3.63
2019-05-06T10:09:08.875Z,4.17
2019-05-06T10:11:37.948Z,4.83
2019-05-06T10:14:06.968Z,4.13
2019-05-06T10:16:35.972Z,4.53
2019-05-06T10:19:06.542Z,4.50
2019-05-06T10:21:36.607Z,5.00
2019-05-06T10:24:05.503Z,7.63
2019-05-06T10:26:39.534Z,5.03
2019-05-06T10:29:40.174Z,5.27
2019-05-06T10:32:24.935Z,4.20
2019-05-06T10:34:53.922Z,3.77
2019-05-06T10:37:26.830Z,4.73
2019-05-06T10:40:04.249Z,5.10
2019-05-06T10:42:37.158Z,6.47
2019-05-06T10:45:20.510Z,4.10
2019-05-06T10:47:55.163Z,4.83
2019-05-06T10:50:24.113Z,3.93
2019-05-06T10:53:13.664Z,4.57
2019-05-06T10:55:53.630Z,3.53
2019-05-06T10:58:26.104Z,3.57
2019-05-06T11:01:06.993Z,3.60
2019-05-06T11:03:36.096Z,4.67
2019-05-06T11:06:06.514Z,4.17
2019-05-06T11:08:35.492Z,3.80
2019-05-06T11:11:14.783Z,4.10
2019-05-06T11:13:35.174Z,4.23
2019-05-06T11:16:04.173Z,10.40
2019-05-06T11:18:36.244Z,4.77
2019-05-06T11:21:05.234Z,3.13
2019-05-06T11:23:36.817Z,3.97
2019-05-06T11:26:05.808Z,4.83
2019-05-06T11:28:59.803Z,4.50
2019-05-06T11:31:50.785Z,4.37
2019-05-06T11:34:34.545Z,7.77
2019-05-06T11:37:27.984Z,3.60
2019-05-06T11:39:56.920Z,5.10
2019-05-06T11:42:32.241Z,5.27
2019-05-06T11:44:57.911Z,5.40
2019-05-06T11:47:26.820Z,4.03
2019-05-06T11:49:57.204Z,3.50
2019-05-06T11:52:26.225Z,4.10
2019-05-06T11:54:55.208Z,6.37
2019-05-06T11:57:29.887Z,5.20
2019-05-06T12:00:02.965Z,8.53
2019-05-06T12:02:33.043Z,4.80
2019-05-06T12:05:02.472Z,5.57
2019-05-06T12:07:33.219Z,5.53
2019-05-06T12:10:06.941Z,3.30
2019-05-06T12:12:35.950Z,4.13
2019-05-06T12:15:07.247Z,5.33
2019-05-06T12:17:37.013Z,4.20
2019-05-06T12:20:07.063Z,5.47
2019-05-06T12:22:36.009Z,4.17
2019-05-06T12:25:11.172Z,4.43
2019-05-06T12:27:47.088Z,4.87
2019-05-06T12:30:18.712Z,5.47
2019-05-06T12:33:14.374Z,5.47
2019-05-06T12:35:47.660Z,6.07
2019-05-06T12:38:30.182Z,5.00
2019-05-06T12:40:59.716Z,4.20
2019-05-06T12:43:52.003Z,4.63
2019-05-06T12:46:26.785Z,3.80
2019-05-06T12:48:55.933Z,5.33
2019-05-06T12:51:32.790Z,4.37
2019-05-06T12:54:03.521Z,4.60
2019-05-06T12:56:35.554Z,4.23
2019-05-06T12:59:07.012Z,3.87
2019-05-06T13:01:36.260Z,5.80
2019-05-06T13:04:07.877Z,4.43
2019-05-06T13:06:36.844Z,4.67
2019-05-06T13:09:06.589Z,3.07
2019-05-06T13:11:36.792Z,6.93
2019-05-06T13:14:05.743Z,11.13
2019-05-06T13:16:34.689Z,7.77
2019-05-06T13:19:03.907Z,9.57
2019-05-06T13:21:33.995Z,7.17
2019-05-06T13:24:06.985Z,11.07
2019-05-06T13:26:36.967Z,9.37
2019-05-06T13:29:15.097Z,8.53
2019-05-06T13:31:47.758Z,9.83
2019-05-06T13:34:18.331Z,10.87
2019-05-06T13:36:47.775Z,9.23
2019-05-06T13:39:16.936Z,11.23
2019-05-06T13:41:46.134Z,8.17
2019-05-06T13:44:19.357Z,7.83
2019-05-06T13:46:55.349Z,10.57
2019-05-06T13:49:49.423Z,12.63
2019-05-06T13:52:22.965Z,10.23
2019-05-06T13:54:53.260Z,9.30
2019-05-06T13:57:22.718Z,8.67
2019-05-06T13:59:53.490Z,7.93
2019-05-06T14:02:37.225Z,8.20
2019-05-06T14:05:06.592Z,5.63
2019-05-06T14:07:35.541Z,8.33
2019-05-06T14:10:05.413Z,9.17
2019-05-06T14:12:34.528Z,9.30
2019-05-06T14:15:06.077Z,9.43
2019-05-06T14:17:38.462Z,6.73
2019-05-06T14:20:12.482Z,9.20
2019-05-06T14:22:44.215Z,8.30
2019-05-06T14:25:40.180Z,9.40
2019-05-06T14:28:21.241Z,10.63
2019-05-06T14:30:54.179Z,10.97
2019-05-06T14:33:23.815Z,13.60
2019-05-06T14:35:53.188Z,11.80
2019-05-06T14:38:24.534Z,9.00
2019-05-06T14:41:27.032Z,8.10
2019-05-06T14:43:52.741Z,11.73
2019-05-06T14:46:22.850Z,7.40
2019-05-06T14:48:53.465Z,8.17
2019-05-06T14:51:22.597Z,9.37
2019-05-06T14:53:53.035Z,7.40
2019-05-06T14:56:32.161Z,6.90
2019-05-06T14:59:04.685Z,8.60
2019-05-06T15:01:34.774Z,11.37
2019-05-06T15:04:03.794Z,9.90
2019-05-06T15:06:33.187Z,10.10
2019-05-06T15:09:03.734Z,11.80
2019-05-06T15:11:34.239Z,9.93
2019-05-06T15:14:05.083Z,9.37
2019-05-06T15:16:34.022Z,10.90
2019-05-06T15:19:04.524Z,11.80
2019-05-06T15:21:38.494Z,11.60
2019-05-06T15:24:05.429Z,9.90
2019-05-06T15:26:37.153Z,8.27
2019-05-06T15:29:07.114Z,9.27
2019-05-06T15:31:55.283Z,9.93
2019-05-06T15:34:33.369Z,8.53
2019-05-06T15:37:13.023Z,9.53
2019-05-06T15:39:43.896Z,9.00
2019-05-06T15:42:13.022Z,9.40
2019-05-06T15:44:42.562Z,9.73
2019-05-06T15:47:13.199Z,14.33
2019-05-06T15:49:46.304Z,12.00
2019-05-06T15:52:16.417Z,11.73
2019-05-06T15:54:45.356Z,10.70
2019-05-06T15:57:14.605Z,16.23
2019-05-06T15:59:45.553Z,14.17
2019-05-06T16:02:14.100Z,11.47
2019-05-06T16:04:43.137Z,8.63
2019-05-06T16:07:12.676Z,9.90
2019-05-06T16:09:42.895Z,8.63
2019-05-06T16:12:12.751Z,9.60
2019-05-06T16:14:42.543Z,10.60
2019-05-06T16:17:15.168Z,10.90
2019-05-06T16:19:43.431Z,8.50
2019-05-06T16:22:12.335Z,10.23
2019-05-06T16:24:49.775Z,13.40
2019-05-06T16:27:18.734Z,17.97
2019-05-06T16:29:54.791Z,14.40
2019-05-06T16:32:23.687Z,10.43
2019-05-06T16:34:52.658Z,13.00
2019-05-06T16:37:22.261Z,19.87
2019-05-06T16:39:52.505Z,19.53
2019-05-06T16:42:28.043Z,10.40
2019-05-06T16:44:57.354Z,8.30
2019-05-06T16:47:39.408Z,9.67
2019-05-06T16:50:10.028Z,11.53
2019-05-06T16:52:45.509Z,10.50
2019-05-06T16:55:20.828Z,15.40
2019-05-06T16:57:59.112Z,10.60
2019-05-06T17:00:32.547Z,13.93
2019-05-06T17:03:11.697Z,13.93
2019-05-06T17:05:58.689Z,16.20
2019-05-06T17:08:28.221Z,15.73
2019-05-06T17:10:57.748Z,16.53
2019-05-06T17:13:26.754Z,13.43
2019-05-06T17:15:55.782Z,15.53
2019-05-06T17:18:25.874Z,9.23
2019-05-06T17:20:56.206Z,13.17
2019-05-06T17:23:28.965Z,13.10
2019-05-06T17:25:58.423Z,16.27
2019-05-06T17:28:40.342Z,15.50
2019-05-06T17:31:47.765Z,21.43
2019-05-06T17:34:20.617Z,21.00
2019-05-06T17:36:53.798Z,20.27
2019-05-06T17:39:27.755Z,23.20
2019-05-06T17:41:57.098Z,22.87
2019-05-06T17:44:27.619Z,19.03
2019-05-06T17:47:14.904Z,15.27
2019-05-06T17:49:45.333Z,14.60
2019-05-06T17:52:24.403Z,16.50
2019-05-06T17:54:57.946Z,16.57
2019-05-06T17:57:34.441Z,16.27
2019-05-06T18:00:05.031Z,16.57
2019-05-06T18:02:34.149Z,10.93
2019-05-06T18:05:05.873Z,12.83
2019-05-06T18:07:35.075Z,13.30
2019-05-06T18:10:05.959Z,12.20
2019-05-06T18:12:35.169Z,14.23
2019-05-06T18:15:04.937Z,15.17
2019-05-06T18:17:34.462Z,13.87
2019-05-06T18:20:05.337Z,15.97
2019-05-06T18:22:34.597Z,21.50
2019-05-06T18:25:08.043Z,110.63
2019-05-06T18:27:37.136Z,41.70
2019-05-06T18:30:15.929Z,157.23
2019-05-06T18:32:42.347Z,123.07
2019-05-06T18:35:13.088Z,97.07
2019-05-06T18:37:42.681Z,64.83
2019-05-06T18:40:13.464Z,84.93
2019-05-06T18:42:43.134Z,61.00
2019-05-06T18:45:12.572Z,46.33
2019-05-06T18:47:42.215Z,45.10
2019-05-06T18:50:16.192Z,30.77
2019-05-06T18:52:45.296Z,30.27
2019-05-06T18:55:22.547Z,20.60
2019-05-06T18:57:52.790Z,13.77
2019-05-06T19:00:26.351Z,19.83
2019-05-06T19:02:55.489Z,16.73
2019-05-06T19:05:29.164Z,14.93
2019-05-06T19:07:58.199Z,13.43
2019-05-06T19:10:29.246Z,22.43
2019-05-06T19:13:01.778Z,26.00
2019-05-06T19:15:32.746Z,29.53
2019-05-06T19:18:02.349Z,22.03
2019-05-06T19:20:33.797Z,27.43
2019-05-06T19:23:04.798Z,22.27
2019-05-06T19:25:35.098Z,14.23
2019-05-06T19:28:05.836Z,16.93
2019-05-06T19:30:36.845Z,27.03
2019-05-06T19:33:07.160Z,19.07
2019-05-06T19:35:37.084Z,20.27
2019-05-06T19:38:06.287Z,27.20
2019-05-06T19:40:35.337Z,31.67
2019-05-06T19:43:04.764Z,33.83
2019-05-06T19:45:34.666Z,43.33
2019-05-06T19:48:08.080Z,69.83
2019-05-06T19:50:37.157Z,55.53
2019-05-06T19:53:07.813Z,36.13
2019-05-06T19:55:38.161Z,65.27
2019-05-06T19:58:08.082Z,39.23
2019-05-06T20:00:38.614Z,30.70
2019-05-06T20:03:07.631Z,29.30
2019-05-06T20:06:07.787Z,34.17
2019-05-06T20:08:47.487Z,23.90
2019-05-06T20:11:35.608Z,24.13
2019-05-06T20:14:04.681Z,43.27
2019-05-06T20:16:33.725Z,43.60
2019-05-06T20:19:08.007Z,24.87
2019-05-06T20:21:37.256Z,21.13
2019-05-06T20:24:08.103Z,19.10
2019-05-06T20:26:38.665Z,17.97
2019-05-06T20:29:07.961Z,14.80
2019-05-06T20:31:37.371Z,17.13
2019-05-06T20:34:07.681Z,17.37
2019-05-06T20:36:36.811Z,27.07
2019-05-06T20:39:06.650Z,25.63
2019-05-06T20:41:36.473Z,19.17
2019-05-06T20:44:05.616Z,25.03
2019-05-06T20:46:34.728Z,22.97
2019-05-06T20:49:05.356Z,21.93
2019-05-06T20:51:34.494Z,20.40
2019-05-06T20:54:04.840Z,17.30
2019-05-06T20:56:34.061Z,22.50
2019-05-06T20:59:03.256Z,19.67
2019-05-06T21:01:33.106Z,33.10
2019-05-06T21:04:02.370Z,25.93
2019-05-06T21:06:32.221Z,24.23
2019-05-06T21:09:02.123Z,20.23
2019-05-06T21:11:32.522Z,17.20
2019-05-06T21:14:02.332Z,25.17
2019-05-06T21:16:32.084Z,35.13
2019-05-06T21:19:03.119Z,60.20
2019-05-06T21:21:32.713Z,30.77
2019-05-06T21:24:02.190Z,45.03
2019-05-06T21:26:33.012Z,46.43
2019-05-06T21:29:03.236Z,55.67
2019-05-06T21:31:35.607Z,49.60
2019-05-06T21:34:12.812Z,49.57
2019-05-06T21:36:42.386Z,39.60
2019-05-06T21:39:13.066Z,36.33
2019-05-06T21:41:48.889Z,39.20
2019-05-06T21:44:17.929Z,27.27
2019-05-06T21:46:47.100Z,18.20
2019-05-06T21:49:16.124Z,24.13
2019-05-06T21:51:45.280Z,19.77
2019-05-06T21:54:18.273Z,20.10
2019-05-06T21:56:47.407Z,19.43
2019-05-06T21:59:16.373Z,19.93
2019-05-06T22:01:48.249Z,21.27
2019-05-06T22:04:17.280Z,22.77
2019-05-06T22:06:46.215Z,25.73
2019-05-06T22:09:18.542Z,26.40
2019-05-06T22:11:47.992Z,21.93
2019-05-06T22:14:18.573Z,20.67
2019-05-06T22:16:47.619Z,23.50
2019-05-06T22:19:16.547Z,18.87
2019-05-06T22:22:06.206Z,16.30
2019-05-06T22:24:48.852Z,14.80
2019-05-06T22:27:18.052Z,13.80
2019-05-06T22:29:47.082Z,18.03
2019-05-06T22:32:17.149Z,12.67
2019-05-06T22:34:46.188Z,17.73
2019-05-06T22:37:15.186Z,20.57
2019-05-06T22:39:44.126Z,16.63
2019-05-06T22:42:15.239Z,18.30
2019-05-06T22:44:44.255Z,23.50
2019-05-06T22:47:13.365Z,36.23
2019-05-06T22:49:42.449Z,32.70
2019-05-06T22:52:12.575Z,31.40
2019-05-06T22:54:43.391Z,50.73
2019-05-06T22:57:12.539Z,60.20
2019-05-06T22:59:42.745Z,44.03
2019-05-06T23:02:32.148Z,37.13
2019-05-06T23:05:04.205Z,40.47
2019-05-06T23:07:34.118Z,39.97
2019-05-06T23:10:02.862Z,54.73
2019-05-06T23:12:33.638Z,57.97
2019-05-06T23:15:02.785Z,62.60
2019-05-06T23:17:34.423Z,60.87
2019-05-06T23:20:03.510Z,30.23
2019-05-06T23:22:32.609Z,46.17
2019-05-06T23:25:02.327Z,31.80
2019-05-06T23:27:34.431Z,23.80
2019-05-06T23:30:03.562Z,22.53
2019-05-06T23:32:32.756Z,18.03
2019-05-06T23:35:03.282Z,20.37
2019-05-06T23:37:31.549Z,14.63
2019-05-06T23:40:18.792Z,17.30
2019-05-06T23:43:06.192Z,17.97
2019-05-06T23:45:54.391Z,18.90
2019-05-06T23:48:42.928Z,17.77
2019-05-06T23:51:30.388Z,21.33
2019-05-06T23:54:17.241Z,38.50
2019-05-06T23:56:45.397Z,62.53
2019-05-06T23:59:14.969Z,61.37
